sensor_id;sensor_type;location;lat;lon;timestamp;P1;durP1;ratioP1;P2;durP2;ratioP2
2438;SDS011;14509;47.992;7.848;2023-04-03T00:01:35;4.17;;;3.53;;
2438;SDS011;14509;47.992;7.848;2023-04-03T00:03:38;3.97;;;3.63;;
2438;SDS011;14509;47.992;7.848;2023-04-03T00:05:41;4.43;;;3.60;;
2438;SDS011;14509;47.992;7.848;2023-04-03T00:07:43;4.63;;;4.20;;
2438;SDS011;14509;47.992;7.848;2023-04-03T00:09:45;4.60;;;3.80;;
2438;SDS011;14509;47.992;7.848;2023-04-03T00:11:47;4.20;;;3.80;;
2438;SDS011;14509;47.992;7.848;2023-04-03T00:13:49;4.90;;;3.80;;
2438;SDS011;14509;47.992;7.848;2023-04-03T00:15:52;3.87;;;3.57;;
2438;SDS011;14509;47.992;7.848;2023-04-03T00:17:54;3.83;;;3.43;;
2438;SDS011;14509;47.992;7.848;2023-04-03T00:19:57;4.60;;;4.20;;
2438;SDS011;14509;47.992;7.848;2023-04-03T00:21:59;3.60;;;3.30;;
2438;SDS011;14509;47.992;7.848;2023-04-03T00:24:01;4.10;;;3.33;;
2438;SDS011;14509;47.992;7.848;2023-04-03T00:26:03;4.20;;;3.80;;
2438;SDS011;14509;47.992;7.848;2023-04-03T00:28:05;4.20;;;3.30;;
2438;SDS011;14509;47.992;7.848;2023-04-03T16:22:05;1.97;;;1.60;;
2438;SDS011;14509;47.992;7.848;2023-04-03T16:24:07;2.07;;;1.60;;
2438;SDS011;14509;47.992;7.848;2023-04-03T16:26:10;2.60;;;2.40;;
2438;SDS011;14509;47.992;7.848;2023-04-03T16:28:12;4.80;;;2.50;;
2438;SDS011;14509;47.992;7.848;2023-04-03T16:30:15;4.27;;;2.40;;
2438;SDS011;14509;47.992;7.848;2023-04-03T16:32:18;3.83;;;2.23;;
2438;SDS011;14509;47.992;7.848;2023-04-03T16:34:20;2.50;;;2.00;;
2438;SDS011;14509;47.992;7.848;2023-04-03T16:36:23;2.43;;;2.23;;
2438;SDS011;14509;47.992;7.848;2023-04-03T16:38:27;2.90;;;1.43;;
2438;SDS011;14509;47.992;7.848;2023-04-03T16:40:29;3.23;;;2.23;;
2438;SDS011;14509;47.992;7.848;2023-04-03T16:42:33;3.37;;;2.23;;
2438;SDS011;14509;47.992;7.848;2023-04-03T16:44:37;1.80;;;1.70;;
2438;SDS011;14509;47.992;7.848;2023-04-03T16:46:40;2.27;;;2.07;;
2438;SDS011;14509;47.992;7.848;2023-04-03T16:48:42;7.43;;;2.50;;
2438;SDS011;14509;47.992;7.848;2023-04-03T16:50:45;2.43;;;2.23;;
2438;SDS011;14509;47.992;7.848;2023-04-03T16:52:51;2.40;;;2.20;;
2438;SDS011;14509;47.992;7.848;2023-04-03T16:54:54;3.13;;;2.20;;
2438;SDS011;14509;47.992;7.848;2023-04-03T16:56:58;5.50;;;3.10;;
2438;SDS011;14509;47.992;7.848;2023-04-03T16:59:00;3.00;;;2.10;;
2438;SDS011;14509;47.992;7.848;2023-04-03T17:01:10;4.13;;;3.77;;
2438;SDS011;14509;47.992;7.848;2023-04-03T20:11:00;3.10;;;2.50;;
2438;SDS011;14509;47.992;7.848;2023-04-03T20:13:02;2.20;;;2.08;;
2438;SDS011;14509;47.992;7.848;2023-04-03T20:15:08;5.30;;;3.30;;
2438;SDS011;14509;47.992;7.848;2023-04-03T20:17:11;6.65;;;2.85;;
2438;SDS011;14509;47.992;7.848;2023-04-03T20:19:13;2.80;;;2.53;;
2438;SDS011;14509;47.992;7.848;2023-04-03T20:21:16;4.18;;;2.40;;
2438;SDS011;14509;47.992;7.848;2023-04-03T20:23:18;3.30;;;2.72;;
2438;SDS011;14509;47.992;7.848;2023-04-03T20:25:21;1.52;;;1.42;;
2438;SDS011;14509;47.992;7.848;2023-04-03T20:27:24;2.55;;;1.75;;
2438;SDS011;14509;47.992;7.848;2023-04-03T20:29:28;2.17;;;1.98;;
2438;SDS011;14509;47.992;7.848;2023-04-03T20:31:30;1.98;;;1.88;;
2438;SDS011;14509;47.992;7.848;2023-04-03T20:33:33;1.52;;;1.42;;
2438;SDS011;14509;47.992;7.848;2023-04-03T20:35:37;4.13;;;3.28;;
2438;SDS011;14509;47.992;7.848;2023-04-03T20:37:39;2.30;;;2.10;;
2438;SDS011;14509;47.992;7.848;2023-04-03T20:39:42;5.72;;;2.55;;
2438;SDS011;14509;47.992;7.848;2023-04-03T20:41:44;2.88;;;2.65;;
2438;SDS011;14509;47.992;7.848;2023-04-03T20:43:59;2.60;;;2.40;;
2438;SDS011;14509;47.992;7.848;2023-04-03T20:46:01;2.67;;;2.38;;
2438;SDS011;14509;47.992;7.848;2023-04-03T20:48:04;2.22;;;2.00;;
2438;SDS011;14509;47.992;7.848;2023-04-03T20:50:07;2.10;;;2.00;;
2438;SDS011;14509;47.992;7.848;2023-04-03T20:52:10;4.65;;;2.05;;
2438;SDS011;14509;47.992;7.848;2023-04-03T20:54:12;2.90;;;1.90;;
2438;SDS011;14509;47.992;7.848;2023-04-03T20:56:14;2.50;;;2.30;;
2438;SDS011;14509;47.992;7.848;2023-04-03T20:58:16;3.75;;;1.63;;
2438;SDS011;14509;47.992;7.848;2023-04-03T21:00:20;2.55;;;2.35;;
2438;SDS011;14509;47.992;7.848;2023-04-03T21:02:23;6.60;;;2.78;;
2438;SDS011;14509;47.992;7.848;2023-04-03T21:04:27;2.63;;;2.15;;
